Time;durP1;ratioP1;P1;durP2;ratioP2;P2;SDS_P1;SDS_P2;PMS_P1;PMS_P2;Temp;Humidity;BMP_temperature;BMP_pressure;BME280_temperature;BME280_humidity;BME280_pressure;Samples;Min_cycle;Max_cycle;Signal;HPM_P1;HPM_P2
2021/04/19 00:02:15;;;;;;;5.45;4.90;;;;;;;10.70;67.12;101103.09;4902189;28;112984;-58
2021/04/19 00:04:41;;;;;;;6.00;4.75;;;;;;;10.69;66.78;101100.63;4900810;28;111970;-59
2021/04/19 00:07:07;;;;;;;5.50;5.00;;;;;;;10.71;66.61;101102.03;4904099;28;97806;-62
2021/04/19 00:09:34;;;;;;;5.05;4.65;;;;;;;10.76;66.19;101101.25;4903138;28;111855;-63
2021/04/19 00:12:01;;;;;;;6.05;5.07;;;;;;;10.77;66.50;101103.72;4903732;28;99147;-59
2021/04/19 00:14:27;;;;;;;6.35;4.90;;;;;;;10.81;66.54;101104.03;4901069;28;115845;-58
2021/04/19 00:16:53;;;;;;;6.25;5.32;;;;;;;10.80;66.03;101088.91;4904164;28;103441;-62
2021/04/19 00:19:19;;;;;;;5.50;4.85;;;;;;;10.84;65.71;101092.72;4903098;28;127375;-59
2021/04/19 00:21:45;;;;;;;5.32;4.82;;;;;;;10.86;65.94;101095.19;4902525;28;128288;-62
2021/04/19 00:24:11;;;;;;;5.72;5.13;;;;;;;10.86;66.23;101092.47;4900883;28;126966;-58
2021/04/19 00:26:37;;;;;;;5.80;5.20;;;;;;;10.84;65.85;101092.72;4900832;28;117284;-59
2021/04/19 00:29:03;;;;;;;6.45;5.70;;;;;;;10.85;65.54;101091.66;4900550;28;128211;-58
2021/04/19 00:31:30;;;;;;;6.15;5.13;;;;;;;10.84;65.67;101084.63;4900530;28;127590;-62
2021/04/19 00:33:56;;;;;;;6.13;4.90;;;;;;;10.83;65.33;101088.41;4903654;28;97936;-59
2021/04/19 00:36:22;;;;;;;5.93;5.13;;;;;;;10.82;66.11;101082.19;4902556;28;97981;-59
2021/04/19 00:38:48;;;;;;;6.05;5.43;;;;;;;10.79;65.98;101077.28;4902348;28;128002;-62
2021/04/19 00:41:15;;;;;;;5.68;5.07;;;;;;;10.77;66.30;101081.34;4902179;28;128125;-59
2021/04/19 00:43:41;;;;;;;5.55;4.88;;;;;;;10.77;65.91;101079.44;4902389;28;115706;-62
2021/04/19 00:46:07;;;;;;;6.00;5.40;;;;;;;10.74;66.03;101081.84;4902035;28;117172;-58
2021/04/19 00:48:34;;;;;;;5.35;4.72;;;;;;;10.75;65.61;101076.19;4901052;28;107165;-59
2021/04/19 00:51:00;;;;;;;5.68;4.97;;;;;;;10.77;65.48;101087.53;4903171;28;98257;-62
2021/04/19 00:53:27;;;;;;;5.65;5.10;;;;;;;10.73;65.82;101091.00;4901193;28;116398;-61
2021/04/19 00:55:53;;;;;;;5.13;4.63;;;;;;;10.71;65.88;101093.13;4900720;28;97978;-62
2021/04/19 00:58:21;;;;;;;5.88;5.10;;;;;;;10.72;65.52;101095.56;4902293;28;98493;-62
2021/04/19 01:00:47;;;;;;;6.43;5.25;;;;;;;10.69;65.15;101101.47;4900309;28;113260;-59
2021/04/19 01:03:13;;;;;;;5.50;4.82;;;;;;;10.66;65.35;101096.59;4900192;28;126008;-59
2021/04/19 01:05:40;;;;;;;5.40;4.90;;;;;;;10.67;65.88;101108.19;4901367;28;97992;-59
2021/04/19 01:08:09;;;;;;;5.25;4.75;;;;;;;10.68;65.40;101107.91;4903324;28;98014;-61
2021/04/19 01:10:39;;;;;;;5.88;5.20;;;;;;;10.70;65.65;101103.09;4902526;28;98675;-59
2021/04/19 01:13:05;;;;;;;6.07;4.68;;;;;;;10.68;65.22;101107.09;4902036;28;127355;-58
2021/04/19 01:15:32;;;;;;;5.53;4.78;;;;;;;10.68;65.50;101107.09;4902918;28;97911;-62
2021/04/19 01:17:58;;;;;;;5.38;4.80;;;;;;;10.66;65.96;101101.16;4901495;28;101197;-62
2021/04/19 01:20:26;;;;;;;5.25;4.75;;;;;;;10.68;64.92;101112.50;4900082;28;126834;-62
2021/04/19 01:22:52;;;;;;;5.00;4.50;;;;;;;10.65;65.38;101108.44;4901832;28;97999;-61
2021/04/19 01:25:25;;;;;;;4.93;4.43;;;;;;;10.62;64.93;101095.47;4901562;28;114814;-59
2021/04/19 01:27:52;;;;;;;5.05;4.55;;;;;;;10.63;65.48;101098.97;4902245;28;98584;-60
2021/04/19 01:30:19;;;;;;;5.63;4.43;;;;;;;10.59;65.10;101095.94;4902246;28;99052;-62
2021/04/19 01:32:46;;;;;;;4.82;4.30;;;;;;;10.59;65.90;101093.25;4903014;28;98260;-62
2021/04/19 01:35:13;;;;;;;4.80;4.30;;;;;;;10.57;65.71;101093.53;4903575;28;98203;-58
2021/04/19 01:37:39;;;;;;;5.40;4.50;;;;;;;10.57;65.79;101090.81;4902851;28;114748;-59
2021/04/19 01:40:07;;;;;;;5.03;4.30;;;;;;;10.57;65.72;101095.38;4901792;28;128419;-61
2021/04/19 01:42:33;;;;;;;6.07;4.32;;;;;;;10.55;65.72;101090.25;4897008;28;98476;-61
2021/04/19 01:44:59;;;;;;;5.28;4.15;;;;;;;10.55;65.88;101092.94;4882212;28;116901;-61
2021/04/19 01:47:25;;;;;;;4.63;3.85;;;;;;;10.57;65.90;101092.69;4882693;28;108511;-61
2021/04/19 01:49:55;;;;;;;4.32;3.92;;;;;;;10.55;65.56;101089.44;4880813;28;99429;-58
2021/04/19 01:52:21;;;;;;;5.53;4.32;;;;;;;10.55;65.46;101087.56;4883080;28;126828;-58
2021/04/19 01:54:47;;;;;;;4.50;4.10;;;;;;;10.54;65.34;101096.72;4886618;28;98020;-58
2021/04/19 01:57:13;;;;;;;4.93;4.13;;;;;;;10.53;65.56;101094.25;4885166;28;128678;-58
2021/04/19 01:59:39;;;;;;;4.97;3.90;;;;;;;10.54;64.86;101099.41;4885249;28;126347;-59
2021/04/19 02:02:17;;;;;;;4.50;4.03;;;;;;;10.53;65.17;101094.25;4901026;28;98151;-62
2021/04/19 02:05:24;;;;;;;4.50;4.10;;;;;;;10.53;65.41;101091.56;4885904;28;99272;-62
2021/04/19 02:08:03;;;;;;;4.40;4.00;;;;;;;10.50;65.69;101098.28;4885792;28;99012;-59
2021/04/19 02:11:03;;;;;;;5.07;4.18;;;;;;;10.51;65.23;101102.59;4884195;28;112605;-61
2021/04/19 02:13:43;;;;;;;4.07;3.67;;;;;;;10.51;65.29;101099.91;4885322;28;97861;-58
2021/04/19 02:16:39;;;;;;;4.30;3.90;;;;;;;10.52;64.93;101108.81;4884453;28;97948;-61
2021/04/19 02:19:17;;;;;;;4.65;4.15;;;;;;;10.51;65.64;101099.91;4884791;28;113958;-58
2021/04/19 02:21:55;;;;;;;4.45;4.05;;;;;;;10.50;65.70;101097.47;4883771;28;109352;-58
2021/04/19 02:24:23;;;;;;;4.60;4.00;;;;;;;10.51;65.10;101091.00;4868620;28;112492;-61
2021/04/19 02:26:55;;;;;;;5.20;4.22;;;;;;;10.52;65.85;101098.84;4884623;28;97996;-58
2021/04/19 02:29:47;;;;;;;4.60;4.17;;;;;;;10.51;66.12;101099.91;4884376;28;98504;-61
2021/04/19 02:32:26;;;;;;;4.93;4.40;;;;;;;10.50;65.57;101100.16;4901399;28;106989;-58
2021/04/19 02:34:53;;;;;;;4.75;4.15;;;;;;;10.47;65.73;101104.16;4918772;28;98945;-58
2021/04/19 02:37:20;;;;;;;4.90;4.00;;;;;;;10.48;65.51;101096.91;4903093;28;110648;-58
2021/04/19 02:39:48;;;;;;;4.50;3.90;;;;;;;10.49;66.13;101107.44;4901238;28;126024;-61
2021/04/19 02:42:14;;;;;;;4.43;4.03;;;;;;;10.45;65.51;101109.00;4918934;28;118176;-58
2021/04/19 02:44:40;;;;;;;4.85;4.40;;;;;;;10.45;65.67;101110.88;4918141;28;108602;-61
2021/04/19 02:47:06;;;;;;;4.72;4.28;;;;;;;10.45;66.23;101111.72;4919072;28;117765;-62
2021/04/19 02:49:35;;;;;;;5.13;4.38;;;;;;;10.42;65.97;101114.91;4904068;28;112262;-59
2021/04/19 02:52:06;;;;;;;4.60;4.18;;;;;;;10.38;65.89;101110.25;4903275;28;99557;-62
2021/04/19 02:54:33;;;;;;;4.47;4.05;;;;;;;10.43;65.77;101113.00;4902651;28;99079;-62
2021/04/19 02:56:59;;;;;;;5.03;4.20;;;;;;;10.40;66.27;101108.94;4919911;28;97987;-58
2021/04/19 02:59:27;;;;;;;4.47;4.05;;;;;;;10.41;66.15;101113.25;4885314;28;120428;-61
2021/04/19 03:01:59;;;;;;;5.13;4.13;;;;;;;10.38;66.03;101118.34;4902450;28;119912;-63
2021/04/19 03:04:26;;;;;;;4.40;4.00;;;;;;;10.40;66.00;101121.59;4917934;28;98223;-62
2021/04/19 03:06:54;;;;;;;4.70;4.22;;;;;;;10.39;66.18;101115.38;4905243;28;97995;-62
2021/04/19 03:09:22;;;;;;;5.05;4.10;;;;;;;10.39;65.69;101112.69;4904369;28;98533;-62
2021/04/19 03:12:00;;;;;;;4.47;4.07;;;;;;;10.38;66.24;101113.78;4904684;28;98389;-62
2021/04/19 03:14:52;;;;;;;5.25;4.45;;;;;;;10.36;65.87;101107.00;4918499;28;117009;-61
2021/04/19 03:17:19;;;;;;;5.07;4.23;;;;;;;10.37;65.74;101109.41;4899253;28;97827;-59
2021/04/19 03:20:02;;;;;;;4.32;3.92;;;;;;;10.35;66.17;101110.75;4903962;28;114801;-58
2021/04/19 03:22:28;;;;;;;4.95;4.30;;;;;;;10.36;66.23;101109.69;4917292;28;98300;-59
2021/04/19 03:24:54;;;;;;;5.10;4.30;;;;;;;10.35;65.84;101111.56;4901952;28;126430;-58
2021/04/19 03:27:20;;;;;;;5.13;3.90;;;;;;;10.35;65.57;101113.44;4903165;28;97996;-61
2021/04/19 03:29:46;;;;;;;4.70;4.18;;;;;;;10.35;66.06;101116.97;4901974;28;113681;-59
2021/04/19 03:32:17;;;;;;;4.47;4.07;;;;;;;10.35;66.34;101111.56;4903635;28;127858;-58
2021/04/19 03:34:43;;;;;;;5.93;4.10;;;;;;;10.36;65.97;101104.28;4887603;28;98086;-58
2021/04/19 03:37:23;;;;;;;4.90;4.13;;;;;;;10.35;66.04;101105.38;4886683;28;98251;-62
2021/04/19 03:40:00;;;;;;;4.50;4.10;;;;;;;10.34;66.38;101109.13;4901631;28;117788;-59
2021/04/19 03:42:26;;;;;;;4.60;4.18;;;;;;;10.34;65.92;101106.44;4902953;28;98492;-59
2021/04/19 03:44:52;;;;;;;4.60;4.10;;;;;;;10.34;66.61;101106.44;4901682;28;109565;-58
2021/04/19 03:47:18;;;;;;;4.47;4.07;;;;;;;10.35;66.07;101116.16;4903065;28;98203;-58
2021/04/19 03:49:49;;;;;;;4.78;4.15;;;;;;;10.34;65.86;101115.34;4901413;28;128021;-62
2021/04/19 03:52:18;;;;;;;5.07;3.97;;;;;;;10.34;66.33;101117.22;4902973;28;99068;-62
2021/04/19 03:54:47;;;;;;;5.07;4.18;;;;;;;10.34;66.05;101119.91;4897390;28;114304;-58
2021/04/19 03:57:16;;;;;;;4.38;3.85;;;;;;;10.31;66.13;101119.34;4882863;28;109011;-61
2021/04/19 03:59:43;;;;;;;4.45;4.05;;;;;;;10.34;66.20;101117.22;4882436;28;111429;-61
2021/04/19 04:02:09;;;;;;;4.63;3.95;;;;;;;10.35;66.23;101122.34;4866496;28;114495;-59
2021/04/19 04:04:35;;;;;;;4.78;3.92;;;;;;;10.32;66.40;101120.97;4880785;28;127547;-62
2021/04/19 04:07:02;;;;;;;4.68;4.00;;;;;;;10.36;66.74;101126.66;4898225;28;117487;-61
2021/04/19 04:09:29;;;;;;;4.47;3.83;;;;;;;10.40;65.98;101118.91;4884366;28;99082;-62
2021/04/19 04:11:55;;;;;;;4.53;3.80;;;;;;;10.40;66.15;101124.28;4883625;28;99119;-58
2021/04/19 04:14:22;;;;;;;4.32;3.78;;;;;;;10.40;66.45;101119.72;4898325;28;126308;-61
2021/04/19 04:16:48;;;;;;;4.60;4.13;;;;;;;10.40;66.03;101124.28;4881728;28;107861;-61
2021/04/19 04:19:15;;;;;;;4.40;3.90;;;;;;;10.41;65.32;101121.34;4883141;28;127922;-59
2021/04/19 04:21:41;;;;;;;4.45;3.92;;;;;;;10.41;66.28;101120.53;4903013;28;99247;-58
2021/04/19 04:24:07;;;;;;;4.10;3.65;;;;;;;10.44;66.02;101117.34;4884263;28;127182;-61
2021/04/19 04:26:33;;;;;;;4.38;3.80;;;;;;;10.45;65.91;101118.94;4901569;28;99293;-62
2021/04/19 04:28:59;;;;;;;4.28;3.88;;;;;;;10.46;66.00;101116.03;4884261;28;98305;-60
2021/04/19 04:31:25;;;;;;;5.93;4.10;;;;;;;10.49;65.89;101120.09;4901143;28;108022;-62
2021/04/19 04:33:51;;;;;;;4.82;3.50;;;;;;;10.52;65.42;101122.28;4903665;28;101604;-62
2021/04/19 04:36:17;;;;;;;3.90;3.50;;;;;;;10.55;65.56;101117.22;4903667;28;112413;-59
2021/04/19 04:38:44;;;;;;;4.55;3.78;;;;;;;10.62;65.42;101122.41;4903843;28;98211;-59
2021/04/19 04:41:10;;;;;;;4.32;3.60;;;;;;;10.63;65.43;101120.53;4917258;28;100805;-59
2021/04/19 04:43:37;;;;;;;5.53;3.88;;;;;;;10.63;65.25;101121.34;4899820;28;126608;-61
2021/04/19 04:46:09;;;;;;;4.57;3.90;;;;;;;10.63;65.83;101117.84;4897975;28;97999;-62
2021/04/19 04:48:43;;;;;;;4.25;3.85;;;;;;;10.66;65.40;101120.03;4899633;28;98325;-58
2021/04/19 04:51:16;;;;;;;3.85;3.47;;;;;;;10.64;65.48;101117.56;4881406;28;98468;-58
2021/04/19 04:53:45;;;;;;;4.40;3.97;;;;;;;10.66;65.00;101118.16;4898337;28;97823;-59
2021/04/19 04:56:12;;;;;;;4.00;3.60;;;;;;;10.65;65.31;101118.38;4882803;28;98821;-59
2021/04/19 04:58:39;;;;;;;4.13;3.72;;;;;;;10.69;65.09;101114.13;4881187;28;107126;-58
2021/04/19 05:01:06;;;;;;;4.13;3.72;;;;;;;10.74;64.93;101119.59;4878395;28;110725;-62
2021/04/19 05:03:33;;;;;;;4.70;3.78;;;;;;;10.77;64.97;101117.19;4896795;28;117824;-59
2021/04/19 05:05:59;;;;;;;4.50;4.10;;;;;;;10.75;65.20;101121.22;4883125;28;98034;-58
2021/04/19 05:08:25;;;;;;;4.38;3.97;;;;;;;10.73;64.91;101120.66;4899928;28;126194;-59
2021/04/19 05:10:51;;;;;;;4.50;4.10;;;;;;;10.76;65.70;101120.13;4916080;28;98601;-59
2021/04/19 05:13:17;;;;;;;4.10;3.70;;;;;;;10.80;65.40;101122.06;4899952;28;105172;-59
2021/04/19 05:15:50;;;;;;;4.13;3.50;;;;;;;10.81;65.23;101121.03;4902985;28;97853;-59
2021/04/19 05:18:20;;;;;;;4.55;4.05;;;;;;;10.84;65.33;101116.19;4901705;28;126448;-62
2021/04/19 05:20:47;;;;;;;4.32;3.92;;;;;;;10.87;65.16;101124.56;4901650;28;98949;-58
2021/04/19 05:23:13;;;;;;;4.32;3.92;;;;;;;10.88;65.12;101125.38;4902548;28;97898;-58
2021/04/19 05:25:40;;;;;;;4.28;3.88;;;;;;;10.88;65.37;101128.09;4902649;28;97981;-62
2021/04/19 05:28:07;;;;;;;4.35;3.95;;;;;;;10.89;65.01;101127.84;4904965;28;99515;-59
2021/04/19 05:30:33;;;;;;;4.45;4.05;;;;;;;10.98;65.45;101123.63;4899822;28;115099;-59
2021/04/19 05:32:59;;;;;;;4.63;4.22;;;;;;;10.96;64.93;101125.75;4897252;28;98011;-62
2021/04/19 05:35:27;;;;;;;4.80;4.35;;;;;;;10.96;64.74;101127.63;4884468;28;97867;-59
2021/04/19 05:37:53;;;;;;;4.85;4.35;;;;;;;11.00;65.15;101118.81;4886961;28;98989;-62
2021/04/19 05:40:20;;;;;;;4.88;4.38;;;;;;;11.03;65.32;101129.06;4883470;28;116377;-62
2021/04/19 05:42:47;;;;;;;5.25;4.60;;;;;;;11.07;64.54;101124.78;4886306;28;114033;-62
2021/04/19 05:45:15;;;;;;;5.15;4.65;;;;;;;11.15;64.80;101130.78;4891260;28;104357;-61
2021/04/19 05:47:47;;;;;;;5.05;4.55;;;;;;;11.36;64.22;101132.63;4906166;28;100171;-62
2021/04/19 05:50:14;;;;;;;4.50;4.10;;;;;;;11.58;63.90;101139.81;4903850;28;99033;-62
2021/04/19 05:52:41;;;;;;;5.20;4.70;;;;;;;11.73;63.34;101134.56;4902896;28;97871;-59
2021/04/19 05:55:07;;;;;;;5.70;4.82;;;;;;;11.85;62.54;101140.59;4887491;28;108250;-58
2021/04/19 05:57:54;;;;;;;5.20;4.70;;;;;;;11.96;62.61;101122.59;4903456;28;111954;-59
2021/04/19 06:00:33;;;;;;;5.13;4.53;;;;;;;12.10;62.31;101117.53;4903297;28;98313;-62
2021/04/19 06:03:20;;;;;;;5.05;4.57;;;;;;;12.32;61.85;101110.09;4904462;28;98023;-62
2021/04/19 06:06:12;;;;;;;5.30;4.80;;;;;;;12.51;61.78;101116.66;4888682;28;98201;-59
2021/04/19 06:09:05;;;;;;;5.40;4.90;;;;;;;12.73;61.10;101119.19;4904445;28;98006;-59
2021/04/19 06:11:44;;;;;;;5.65;5.15;;;;;;;12.97;60.52;101111.41;4903180;28;121871;-62
2021/04/19 06:14:13;;;;;;;5.57;5.07;;;;;;;13.14;60.53;101110.34;4887786;28;97953;-62
2021/04/19 06:16:40;;;;;;;5.40;4.90;;;;;;;13.30;60.09;101108.50;4886894;28;98163;-62
2021/04/19 06:19:10;;;;;;;5.22;4.72;;;;;;;13.39;59.81;101112.28;4903674;28;98984;-62
2021/04/19 06:21:37;;;;;;;5.50;5.00;;;;;;;13.44;60.04;101110.41;4902730;28;114031;-62
2021/04/19 06:24:05;;;;;;;5.70;5.20;;;;;;;13.54;59.90;101112.28;4902717;28;119959;-62
2021/04/19 06:26:32;;;;;;;5.60;5.10;;;;;;;13.69;59.76;101114.97;4905447;28;97647;-62
2021/04/19 06:28:58;;;;;;;5.22;4.72;;;;;;;13.84;59.19;101116.06;4907875;28;116048;-62
2021/04/19 06:31:24;;;;;;;5.50;5.00;;;;;;;13.91;59.12;101117.41;4902427;28;127308;-59
2021/04/19 06:34:07;;;;;;;5.03;4.63;;;;;;;14.02;59.47;101114.66;4905398;28;98341;-59
2021/04/19 06:36:43;;;;;;;5.45;4.95;;;;;;;14.13;59.09;101114.34;4905120;28;98114;-59
2021/04/19 06:39:10;;;;;;;4.93;4.53;;;;;;;14.23;58.97;101119.75;4918843;28;98457;-59
2021/04/19 06:41:37;;;;;;;5.63;5.13;;;;;;;14.29;58.88;101114.31;4905071;28;103728;-62
2021/04/19 06:44:03;;;;;;;6.10;5.45;;;;;;;14.25;59.40;101112.16;4903590;28;127827;-59
2021/04/19 06:46:37;;;;;;;5.35;4.85;;;;;;;14.35;59.54;101114.03;4905320;28;97783;-59
2021/04/19 06:49:04;;;;;;;5.97;5.38;;;;;;;14.18;59.94;101108.09;4905197;28;98622;-62
2021/04/19 06:51:31;;;;;;;5.60;5.10;;;;;;;14.13;59.98;101108.94;4905276;28;105202;-59
2021/04/19 06:53:58;;;;;;;5.20;4.70;;;;;;;14.00;60.60;101117.66;4905129;28;98031;-62
2021/04/19 06:56:26;;;;;;;6.53;5.75;;;;;;;14.17;60.42;101122.75;4904071;28;98173;-62
2021/04/19 06:58:53;;;;;;;5.97;5.38;;;;;;;14.22;60.00;101128.97;4902809;28;117523;-59
2021/04/19 07:01:20;;;;;;;6.05;5.50;;;;;;;14.15;60.28;101133.09;4919221;28;98055;-59
2021/04/19 07:04:06;;;;;;;6.40;5.80;;;;;;;14.24;60.42;101131.41;4903820;28;98377;-59
2021/04/19 07:06:33;;;;;;;6.78;6.18;;;;;;;14.21;60.39;101134.69;4905036;28;97831;-62
2021/04/19 07:09:26;;;;;;;6.15;5.55;;;;;;;14.20;60.65;101136.56;4903757;28;99431;-59
2021/04/19 07:12:02;;;;;;;6.30;5.70;;;;;;;14.31;60.41;101136.56;4895737;28;98157;-62
2021/04/19 07:14:30;;;;;;;6.63;6.03;;;;;;;14.39;60.10;101128.66;4902887;28;97977;-63
2021/04/19 07:16:56;;;;;;;7.20;6.38;;;;;;;14.54;59.96;101133.25;4902885;28;98067;-59
2021/04/19 07:19:22;;;;;;;7.38;6.50;;;;;;;14.60;59.64;101142.16;4918849;28;98651;-59
2021/04/19 07:21:49;;;;;;;7.93;6.50;;;;;;;14.78;59.78;101138.03;4904361;28;97985;-62
2021/04/19 07:24:15;;;;;;;6.93;6.32;;;;;;;14.86;59.47;101135.53;4918084;28;98343;-62
2021/04/19 07:26:42;;;;;;;7.00;6.30;;;;;;;15.01;59.47;101142.75;4902469;28;98100;-59
2021/04/19 07:29:08;;;;;;;7.07;6.38;;;;;;;15.16;58.98;101142.66;4901887;28;99062;-59
2021/04/19 07:31:51;;;;;;;7.22;6.53;;;;;;;15.34;58.90;101146.63;4903478;28;114657;-62
2021/04/19 07:34:22;;;;;;;7.75;6.88;;;;;;;15.45;58.43;101137.31;4904026;28;97978;-59
2021/04/19 07:36:52;;;;;;;7.68;6.88;;;;;;;15.48;58.90;101146.78;4904444;28;97808;-62
2021/04/19 07:39:21;;;;;;;7.78;6.97;;;;;;;15.67;58.40;101142.31;4904205;28;99228;-63
2021/04/19 07:41:51;;;;;;;8.20;7.32;;;;;;;15.91;58.28;101138.84;4905042;28;98891;-62
2021/04/19 07:44:35;;;;;;;8.43;7.45;;;;;;;16.33;57.11;101135.41;4901888;28;97793;-59
2021/04/19 07:47:33;;;;;;;8.65;7.85;;;;;;;16.30;57.78;101138.72;4904063;28;97987;-59
2021/04/19 07:50:21;;;;;;;9.65;8.10;;;;;;;16.32;57.79;101127.56;4902579;28;98431;-62
2021/04/19 07:53:05;;;;;;;9.25;8.35;;;;;;;16.71;56.82;101127.34;4903996;28;98605;-59
2021/04/19 07:55:36;;;;;;;8.93;8.02;;;;;;;17.19;55.87;101113.63;4903449;28;98007;-59
2021/04/19 07:58:02;;;;;;;9.60;8.32;;;;;;;18.04;54.17;101115.22;4905295;28;97903;-62
2021/04/19 08:00:38;;;;;;;8.45;7.65;;;;;;;18.32;53.88;101115.22;4902551;28;117877;-60
2021/04/19 08:03:14;;;;;;;9.90;8.90;;;;;;;18.52;53.85;101105.81;4903655;28;98008;-60
2021/04/19 08:05:51;;;;;;;9.80;8.80;;;;;;;19.06;52.77;101104.91;4902959;28;97813;-63
2021/04/19 08:08:19;;;;;;;9.77;8.73;;;;;;;18.80;53.64;101103.84;4887789;28;97814;-63
2021/04/19 08:10:46;;;;;;;9.85;8.85;;;;;;;18.73;54.20;101107.00;4903001;28;98574;-63
2021/04/19 08:13:19;;;;;;;10.05;9.07;;;;;;;18.74;54.04;101111.34;4903307;28;99277;-63
2021/04/19 08:15:46;;;;;;;9.88;8.88;;;;;;;18.70;54.18;101104.88;4903279;28;98058;-60
2021/04/19 08:18:20;;;;;;;10.10;9.13;;;;;;;18.77;54.36;101109.94;4903925;28;97994;-63
2021/04/19 08:20:57;;;;;;;10.93;9.93;;;;;;;19.13;53.88;101098.97;4900557;28;98917;-63
2021/04/19 08:23:23;;;;;;;10.52;9.43;;;;;;;19.63;52.67;101101.63;4903269;28;98668;-63
2021/04/19 08:25:52;;;;;;;10.65;9.63;;;;;;;19.88;52.44;101100.13;4901462;28;126757;-60
2021/04/19 08:28:23;;;;;;;10.25;9.30;;;;;;;20.66;50.97;101097.66;4903117;28;98027;-60
2021/04/19 08:30:52;;;;;;;10.55;9.50;;;;;;;21.08;50.25;101100.78;4900573;28;98226;-63
2021/04/19 08:33:18;;;;;;;10.35;9.35;;;;;;;22.41;47.66;101093.50;4901616;28;98089;-64
2021/04/19 08:35:46;;;;;;;10.38;9.38;;;;;;;22.62;47.51;101102.56;4902910;28;98016;-63
2021/04/19 08:38:12;;;;;;;9.45;8.45;;;;;;;22.32;48.42;101103.72;4903718;28;97712;-60
2021/04/19 08:40:40;;;;;;;9.50;8.60;;;;;;;23.19;46.83;101101.19;4902126;28;99058;-60
2021/04/19 08:43:10;;;;;;;9.98;9.00;;;;;;;23.21;46.84;101098.91;4901833;28;121145;-63
2021/04/19 08:45:40;;;;;;;10.30;9.30;;;;;;;24.23;44.95;101102.81;4900506;28;107651;-60
2021/04/19 08:48:12;;;;;;;10.02;9.13;;;;;;;24.88;43.96;101098.16;4903446;28;97963;-64
2021/04/19 08:50:39;;;;;;;10.82;9.65;;;;;;;25.26;43.48;101091.38;4902063;28;98540;-60
2021/04/19 08:53:08;;;;;;;9.95;9.05;;;;;;;26.18;42.04;101087.47;4903211;28;109426;-60
2021/04/19 08:55:34;;;;;;;9.68;8.75;;;;;;;28.10;38.78;101092.53;4902648;28;98030;-61
2021/04/19 08:58:05;;;;;;;9.38;8.48;;;;;;;29.19;37.04;101090.09;4901311;28;102571;-61
2021/04/19 09:00:31;;;;;;;9.98;8.98;;;;;;;30.10;35.50;101088.56;4901392;28;98552;-61
2021/04/19 09:03:00;;;;;;;9.18;8.32;;;;;;;30.72;34.74;101098.91;4900539;28;128105;-65
2021/04/19 09:05:26;;;;;;;9.25;8.45;;;;;;;31.31;34.23;101094.03;4901746;28;127460;-62
2021/04/19 09:08:12;;;;;;;9.23;8.43;;;;;;;31.98;32.87;101098.88;4903035;28;97900;-61
2021/04/19 09:11:05;;;;;;;9.27;8.48;;;;;;;32.24;32.53;101096.88;4902018;28;98301;-61
2021/04/19 09:13:35;;;;;;;9.60;8.70;;;;;;;30.26;36.09;101091.94;4903275;28;98455;-61
2021/04/19 09:16:21;;;;;;;9.95;9.00;;;;;;;29.11;37.52;101092.78;4902341;28;97842;-60
2021/04/19 09:18:56;;;;;;;11.25;10.18;;;;;;;28.24;39.37;101091.16;4903300;28;98030;-65
2021/04/19 09:21:48;;;;;;;11.48;10.48;;;;;;;27.44;40.44;101085.44;4902333;28;99627;-64
2021/04/19 09:24:17;;;;;;;12.40;11.25;;;;;;;26.85;41.40;101075.56;4902600;28;98016;-64
2021/04/19 09:27:00;;;;;;;12.95;11.65;;;;;;;26.01;42.96;101081.50;4885022;28;98004;-64
2021/04/19 09:29:29;;;;;;;12.90;11.73;;;;;;;25.10;44.71;101077.53;4902758;28;97668;-60
2021/04/19 09:32:08;;;;;;;13.68;12.48;;;;;;;24.45;46.11;101077.59;4902559;28;99196;-63
2021/04/19 09:34:49;;;;;;;14.38;12.98;;;;;;;23.86;47.56;101068.97;4902165;28;98783;-60
2021/04/19 09:37:23;;;;;;;14.00;12.70;;;;;;;23.38;48.34;101070.44;4902272;28;98614;-63
2021/04/19 09:40:06;;;;;;;14.30;12.90;;;;;;;22.85;49.11;101074.78;4900164;28;98295;-60
2021/04/19 09:42:54;;;;;;;15.15;13.65;;;;;;;22.37;50.30;101068.66;4902573;28;99288;-63
2021/04/19 09:45:44;;;;;;;15.10;13.55;;;;;;;22.02;50.66;101070.75;4902610;28;99473;-60
2021/04/19 09:48:28;;;;;;;14.98;13.43;;;;;;;21.72;51.20;101069.88;4902394;28;97786;-63
2021/04/19 09:50:59;;;;;;;14.65;13.15;;;;;;;21.51;51.41;101072.53;4902255;28;98061;-63
2021/04/19 09:53:26;;;;;;;15.40;13.80;;;;;;;21.32;51.76;101059.97;4902147;28;97884;-60
2021/04/19 09:55:52;;;;;;;15.30;13.63;;;;;;;21.15;51.95;101059.19;4902127;28;98046;-64
2021/04/19 09:58:19;;;;;;;14.82;13.32;;;;;;;21.03;52.05;101051.63;4902590;28;104140;-59
2021/04/19 10:00:52;;;;;;;14.90;13.40;;;;;;;20.84;52.55;101063.69;4901801;28;100280;-63
2021/04/19 10:03:18;;;;;;;15.65;14.05;;;;;;;20.65;52.62;101060.47;4901808;28;116288;-63
2021/04/19 10:05:44;;;;;;;15.40;13.90;;;;;;;20.58;52.93;101054.66;4883309;28;126352;-59
2021/04/19 10:08:11;;;;;;;16.90;15.10;;;;;;;20.35;53.36;101054.75;4899074;28;128675;-60
2021/04/19 10:10:37;;;;;;;15.63;14.13;;;;;;;20.23;53.73;101057.28;4898634;28;97938;-60
2021/04/19 10:13:03;;;;;;;16.55;14.88;;;;;;;20.02;54.30;101056.28;4899401;28;126747;-64
2021/04/19 10:15:29;;;;;;;16.15;14.50;;;;;;;19.93;54.45;101050.78;4885809;28;128086;-60
2021/04/19 10:17:58;;;;;;;16.92;15.13;;;;;;;19.78;54.96;101052.00;4903989;28;126308;-60
2021/04/19 10:20:26;;;;;;;17.73;16.02;;;;;;;19.62;54.94;101042.59;4905536;28;97998;-63
2021/04/19 10:23:09;;;;;;;16.52;14.70;;;;;;;19.46;55.62;101044.09;4905431;28;98077;-63
2021/04/19 10:25:45;;;;;;;17.27;15.55;;;;;;;19.35;55.60;101049.00;4904740;28;101618;-63
2021/04/19 10:28:11;;;;;;;16.88;15.27;;;;;;;19.23;55.74;101046.03;4904867;28;97993;-59
2021/04/19 10:30:37;;;;;;;16.63;14.63;;;;;;;19.10;55.96;101039.53;4919246;28;111523;-60
2021/04/19 10:33:03;;;;;;;17.00;15.30;;;;;;;19.14;55.59;101043.25;4904544;28;127306;-60
2021/04/19 10:35:33;;;;;;;17.02;15.23;;;;;;;19.18;55.71;101033.31;4903439;28;128544;-60
2021/04/19 10:37:59;;;;;;;16.80;14.88;;;;;;;19.24;55.23;101032.03;4904890;28;98411;-59
2021/04/19 10:40:26;;;;;;;16.48;14.77;;;;;;;19.36;54.86;101031.47;4905094;28;98032;-63
2021/04/19 10:43:01;;;;;;;15.65;13.82;;;;;;;19.54;54.75;101032.38;4904518;28;99056;-59
2021/04/19 10:45:28;;;;;;;16.23;14.52;;;;;;;19.57;54.55;101037.19;4917357;28;101912;-63
2021/04/19 10:48:20;;;;;;;15.65;14.05;;;;;;;19.60;54.39;101036.59;4904764;28;98314;-59
2021/04/19 10:50:50;;;;;;;15.48;13.88;;;;;;;19.46;54.80;101028.50;4886102;28;98031;-60
2021/04/19 10:53:37;;;;;;;14.65;13.15;;;;;;;19.54;54.72;101029.66;4885271;28;114369;-60
2021/04/19 10:56:03;;;;;;;15.30;13.80;;;;;;;19.48;54.97;101023.50;4885569;28;99369;-63
2021/04/19 10:58:30;;;;;;;14.90;13.50;;;;;;;19.55;54.67;101029.34;4887911;28;113267;-59
2021/04/19 11:00:56;;;;;;;15.20;13.70;;;;;;;19.73;54.43;101024.78;4902643;28;97814;-60
2021/04/19 11:03:22;;;;;;;14.68;13.18;;;;;;;19.89;53.97;101021.63;4903243;28;105085;-59
2021/04/19 11:05:48;;;;;;;14.43;12.93;;;;;;;20.06;53.58;101027.16;4902442;28;98494;-63
2021/04/19 11:08:14;;;;;;;14.90;13.32;;;;;;;20.26;53.35;101021.06;4903426;28;113934;-60
2021/04/19 11:10:40;;;;;;;14.63;13.10;;;;;;;20.48;52.82;101008.41;4901815;28;117649;-63
2021/04/19 11:13:10;;;;;;;14.38;12.98;;;;;;;20.91;52.08;101007.63;4885771;28;128204;-63
2021/04/19 11:15:41;;;;;;;13.57;12.18;;;;;;;21.25;51.19;100996.59;4904337;28;98837;-60
2021/04/19 11:18:26;;;;;;;13.10;11.90;;;;;;;21.89;50.46;100987.50;4886428;28;97978;-64
2021/04/19 11:20:54;;;;;;;12.90;11.60;;;;;;;22.37;49.17;100979.97;4886784;28;98081;-60
2021/04/19 11:23:26;;;;;;;12.77;11.52;;;;;;;22.96;48.07;100983.38;4904618;28;98285;-60
2021/04/19 11:25:52;;;;;;;12.68;11.38;;;;;;;23.56;47.18;100978.31;4904081;28;99271;-63
2021/04/19 11:28:33;;;;;;;12.23;10.93;;;;;;;24.34;46.08;100976.47;4903534;28;112573;-64
2021/04/19 11:31:20;;;;;;;11.82;10.65;;;;;;;27.00;40.77;100977.06;4903577;28;97894;-64
2021/04/19 11:33:50;;;;;;;11.02;9.98;;;;;;;28.28;38.65;100983.94;4904261;28;98619;-60
2021/04/19 11:36:16;;;;;;;10.90;9.82;;;;;;;28.90;37.45;100995.41;4904521;28;97774;-61